createdAt,value
2022-11-13T00:00:48.413Z,74.37
2022-11-13T00:03:36.514Z,74.80
2022-11-13T00:06:23.728Z,74.77
2022-11-13T00:09:12.555Z,74.73
2022-11-13T00:11:59.575Z,75.01
2022-11-13T00:14:47.445Z,74.64
2022-11-13T00:17:35.485Z,74.65
2022-11-13T00:20:24.029Z,74.95
2022-11-13T00:23:10.989Z,74.81
2022-11-13T00:25:57.597Z,74.87
2022-11-13T00:28:44.982Z,74.80
2022-11-13T00:31:32.063Z,74.31
2022-11-13T00:34:47.204Z,74.20
2022-11-13T00:37:27.046Z,74.55
2022-11-13T00:40:14.174Z,74.24
2022-11-13T00:43:01.093Z,73.94
2022-11-13T00:45:47.823Z,73.60
2022-11-13T00:48:34.524Z,73.70
2022-11-13T00:51:21.492Z,73.96
2022-11-13T00:54:09.675Z,74.17
2022-11-13T00:56:56.513Z,73.91
2022-11-13T00:59:43.111Z,73.96
2022-11-13T01:02:29.849Z,73.64
2022-11-13T01:05:16.907Z,73.70
2022-11-13T01:08:05.193Z,74.12
2022-11-13T01:10:53.951Z,73.76
2022-11-13T01:13:41.726Z,74.24
2022-11-13T01:16:29.520Z,73.58
2022-11-13T01:19:18.420Z,73.17
2022-11-13T01:22:05.316Z,73.52
2022-11-13T01:24:52.006Z,73.34
2022-11-13T01:27:40.330Z,73.67
2022-11-13T01:30:27.404Z,74.04
2022-11-13T01:33:15.266Z,74.53
2022-11-13T01:36:04.158Z,74.07
2022-11-13T01:38:51.811Z,74.75
2022-11-13T01:41:38.895Z,74.49
2022-11-13T01:44:27.459Z,74.26
2022-11-13T01:47:15.402Z,74.36
2022-11-13T01:50:03.497Z,74.02
2022-11-13T01:52:50.401Z,74.00
2022-11-13T01:55:37.756Z,73.61
2022-11-13T01:58:24.983Z,73.76
2022-11-13T02:01:13.653Z,73.81
2022-11-13T02:04:00.596Z,74.48
2022-11-13T02:06:52.628Z,74.36
2022-11-13T02:09:42.306Z,75.04
2022-11-13T02:12:34.864Z,74.89
2022-11-13T02:15:25.884Z,75.30
2022-11-13T02:18:16.858Z,75.57
2022-11-13T02:21:11.644Z,75.16
2022-11-13T02:24:05.856Z,74.99
2022-11-13T02:26:57.868Z,75.22
2022-11-13T02:29:45.562Z,75.50
2022-11-13T02:32:33.500Z,75.30
2022-11-13T02:35:25.151Z,75.25
2022-11-13T02:38:12.039Z,75.99
2022-11-13T02:40:58.822Z,75.61
2022-11-13T02:43:47.590Z,75.33
2022-11-13T02:46:35.962Z,75.67
2022-11-13T02:49:22.960Z,75.53
2022-11-13T02:52:09.784Z,75.48
2022-11-13T02:54:56.755Z,75.96
2022-11-13T02:57:45.087Z,75.88
2022-11-13T03:00:33.520Z,75.58
2022-11-13T03:03:41.033Z,75.39
2022-11-13T03:06:27.352Z,75.81
2022-11-13T03:09:14.215Z,75.25
2022-11-13T03:12:00.957Z,75.25
2022-11-13T03:14:47.878Z,75.60
2022-11-13T03:17:36.581Z,75.69
2022-11-13T03:20:23.608Z,75.40
2022-11-13T03:23:11.326Z,75.93
2022-11-13T03:25:58.381Z,75.68
2022-11-13T03:28:45.180Z,75.76
2022-11-13T03:31:31.963Z,75.93
2022-11-13T03:34:20.742Z,76.32
2022-11-13T03:37:07.795Z,75.49
2022-11-13T03:39:54.954Z,76.25
2022-11-13T03:42:42.362Z,75.52
2022-11-13T03:45:29.018Z,76.11
2022-11-13T03:48:17.865Z,76.52
2022-11-13T03:51:06.769Z,75.79
2022-11-13T03:53:53.538Z,76.22
2022-11-13T03:56:40.766Z,76.05
2022-11-13T03:59:27.865Z,75.98
2022-11-13T04:02:15.036Z,76.23
2022-11-13T04:05:02.089Z,77.31
2022-11-13T04:07:51.276Z,76.39
2022-11-13T04:10:38.172Z,76.63
2022-11-13T04:13:25.653Z,77.47
2022-11-13T04:16:13.657Z,77.75
2022-11-13T04:19:01.005Z,77.36
2022-11-13T04:21:47.772Z,77.56
2022-11-13T04:24:36.053Z,77.57
2022-11-13T04:27:23.305Z,77.93
2022-11-13T04:30:11.453Z,77.51
2022-11-13T04:32:58.465Z,77.50
2022-11-13T04:35:46.069Z,77.43
2022-11-13T04:38:34.062Z,77.37
2022-11-13T04:41:39.555Z,77.46
2022-11-13T04:44:27.231Z,77.91
2022-11-13T04:47:15.481Z,77.76
2022-11-13T04:50:02.533Z,77.98
2022-11-13T04:52:49.607Z,77.70
2022-11-13T04:55:36.761Z,77.60
2022-11-13T04:58:25.114Z,77.62
2022-11-13T05:01:12.154Z,77.77
2022-11-13T05:03:59.916Z,78.20
2022-11-13T05:06:47.285Z,78.77
2022-11-13T05:09:34.519Z,78.66
2022-11-13T05:12:22.770Z,78.72
2022-11-13T05:15:12.253Z,78.51
2022-11-13T05:17:59.669Z,78.54
2022-11-13T05:20:46.255Z,77.89
2022-11-13T05:23:34.328Z,78.04
2022-11-13T05:26:21.154Z,78.55
2022-11-13T05:29:08.392Z,78.46
2022-11-13T05:31:57.019Z,78.57
2022-11-13T05:34:44.443Z,78.51
2022-11-13T05:37:31.851Z,78.63
2022-11-13T05:40:21.573Z,78.09
2022-11-13T05:43:08.739Z,78.28
2022-11-13T05:46:01.316Z,77.83
2022-11-13T05:48:54.609Z,77.94
2022-11-13T05:51:41.551Z,77.71
2022-11-13T05:54:28.443Z,77.89
2022-11-13T05:57:15.801Z,78.17
2022-11-13T06:00:03.218Z,78.18
2022-11-13T06:02:50.654Z,78.20
2022-11-13T06:05:39.234Z,78.14
2022-11-13T06:08:27.363Z,78.37
2022-11-13T06:11:16.825Z,78.07
2022-11-13T06:14:04.002Z,78.34
2022-11-13T06:16:52.074Z,77.93
2022-11-13T06:19:38.685Z,77.82
2022-11-13T06:22:29.477Z,78.05
2022-11-13T06:25:16.953Z,77.59
2022-11-13T06:28:04.326Z,78.27
2022-11-13T06:30:50.885Z,77.39
2022-11-13T06:33:38.723Z,77.93
2022-11-13T06:36:27.845Z,77.96
2022-11-13T06:39:16.585Z,78.16
2022-11-13T06:42:04.351Z,78.18
2022-11-13T06:44:51.644Z,77.80
2022-11-13T06:47:39.381Z,78.03
2022-11-13T06:50:26.754Z,77.98
2022-11-13T06:53:14.761Z,78.31
2022-11-13T06:56:06.346Z,77.66
2022-11-13T06:58:55.616Z,77.72
2022-11-13T07:01:43.153Z,78.39
2022-11-13T07:04:30.244Z,78.50
2022-11-13T07:07:17.786Z,78.46
2022-11-13T07:10:07.413Z,78.53
2022-11-13T07:13:00.220Z,78.23
2022-11-13T07:15:47.364Z,78.57
2022-11-13T07:18:34.759Z,78.30
2022-11-13T07:21:22.998Z,78.43
2022-11-13T07:24:15.578Z,78.53
2022-11-13T07:27:03.756Z,78.54
2022-11-13T07:29:52.131Z,78.77
2022-11-13T07:32:39.632Z,78.68
2022-11-13T07:35:29.521Z,78.31
2022-11-13T07:38:16.669Z,78.48
2022-11-13T07:41:04.131Z,78.83
2022-11-13T07:43:51.010Z,79.00
2022-11-13T07:46:39.481Z,79.03
2022-11-13T07:49:26.523Z,78.89
2022-11-13T07:52:14.012Z,79.16
2022-11-13T07:55:01.556Z,79.39
2022-11-13T07:57:48.978Z,79.74
2022-11-13T08:00:36.726Z,80.01
2022-11-13T08:03:25.453Z,80.00
2022-11-13T08:06:14.350Z,80.00
2022-11-13T08:09:02.881Z,80.13
2022-11-13T08:11:49.803Z,80.12
2022-11-13T08:14:37.224Z,80.18
2022-11-13T08:17:26.440Z,80.69
2022-11-13T08:20:15.338Z,80.58
2022-11-13T08:23:06.074Z,80.86
2022-11-13T08:25:53.081Z,80.98
2022-11-13T08:28:40.811Z,81.07
2022-11-13T08:31:28.414Z,81.17
2022-11-13T08:34:16.486Z,81.31
2022-11-13T08:37:06.264Z,81.63
2022-11-13T08:39:53.577Z,81.70
2022-11-13T08:42:41.566Z,81.41
2022-11-13T08:45:30.953Z,81.43
2022-11-13T08:48:19.022Z,81.30
2022-11-13T08:51:07.444Z,81.26
2022-11-13T08:53:56.104Z,81.63
2022-11-13T08:56:43.909Z,82.15
2022-11-13T08:59:32.511Z,82.10
2022-11-13T09:02:19.581Z,82.15
2022-11-13T09:05:09.238Z,82.32
2022-11-13T09:07:58.961Z,81.87
2022-11-13T09:10:48.821Z,81.78
2022-11-13T09:13:43.981Z,82.36
2022-11-13T09:16:33.906Z,82.19
2022-11-13T09:19:21.312Z,82.19
2022-11-13T09:22:11.936Z,82.58
2022-11-13T09:24:58.838Z,82.81
2022-11-13T09:27:56.009Z,82.81
2022-11-13T09:30:43.488Z,83.12
2022-11-13T09:33:30.520Z,83.23
2022-11-13T09:36:18.248Z,83.07
2022-11-13T09:39:07.838Z,83.12
2022-11-13T09:42:00.492Z,82.68
2022-11-13T09:44:52.820Z,82.64
2022-11-13T09:47:44.651Z,82.76
2022-11-13T09:50:38.650Z,82.08
2022-11-13T09:53:27.555Z,81.47
2022-11-13T09:56:35.788Z,80.89
2022-11-13T09:59:30.299Z,81.08
2022-11-13T10:02:26.747Z,81.04
2022-11-13T10:05:22.611Z,80.84
2022-11-13T10:08:20.721Z,80.83
2022-11-13T10:11:17.529Z,80.61
2022-11-13T10:14:14.461Z,80.19
2022-11-13T10:17:09.109Z,79.80
2022-11-13T10:20:01.280Z,79.57
2022-11-13T10:22:52.276Z,79.24
2022-11-13T10:25:43.103Z,78.72
2022-11-13T10:31:47.114Z,78.33
2022-11-13T10:34:35.947Z,77.95
2022-11-13T10:37:41.728Z,77.72
2022-11-13T10:40:30.389Z,77.26
2022-11-13T10:43:20.119Z,76.93
2022-11-13T10:46:09.573Z,76.69
2022-11-13T10:48:57.746Z,75.92
2022-11-13T10:51:45.437Z,75.59
2022-11-13T10:54:34.764Z,74.58
2022-11-13T10:57:30.596Z,73.58
2022-11-13T11:00:23.013Z,72.59
2022-11-13T11:03:18.748Z,72.42
2022-11-13T11:06:06.645Z,72.01
2022-11-13T11:08:53.497Z,71.93
2022-11-13T11:12:04.850Z,71.87
2022-11-13T11:15:22.016Z,71.40
2022-11-13T11:18:23.828Z,71.15
2022-11-13T11:21:19.374Z,70.83
2022-11-13T11:24:15.470Z,70.52
2022-11-13T11:27:09.606Z,70.77
2022-11-13T11:30:06.061Z,70.91
2022-11-13T11:32:59.118Z,70.98
2022-11-13T11:35:53.675Z,70.92
2022-11-13T11:38:50.286Z,70.39
2022-11-13T11:41:45.249Z,70.77
2022-11-13T11:44:59.472Z,70.88
2022-11-13T11:47:53.436Z,71.04
2022-11-13T11:50:54.298Z,71.10
2022-11-13T11:54:01.161Z,71.10
2022-11-13T11:56:57.648Z,71.09
2022-11-13T12:00:01.786Z,71.13
2022-11-13T12:03:24.918Z,70.88
2022-11-13T12:06:25.284Z,71.04
2022-11-13T12:09:24.667Z,70.93
2022-11-13T12:12:23.830Z,70.74
2022-11-13T12:15:22.228Z,70.36
2022-11-13T12:18:17.152Z,70.73
2022-11-13T12:21:25.233Z,70.32
2022-11-13T12:24:37.565Z,69.91
2022-11-13T12:27:33.348Z,70.15
2022-11-13T12:30:33.785Z,69.99
2022-11-13T12:33:35.603Z,69.13
2022-11-13T12:36:25.067Z,67.70
2022-11-13T12:39:31.381Z,67.55
2022-11-13T12:42:24.257Z,67.14
2022-11-13T12:45:23.423Z,67.22
2022-11-13T12:48:33.925Z,67.07
2022-11-13T12:51:23.030Z,67.12
2022-11-13T12:54:11.914Z,66.83
2022-11-13T12:57:52.134Z,66.66
2022-11-13T13:00:41.371Z,66.51
2022-11-13T13:03:45.371Z,66.33
2022-11-13T13:06:47.852Z,65.44
2022-11-13T13:09:56.798Z,65.89
2022-11-13T13:12:58.346Z,66.12
2022-11-13T13:15:49.180Z,66.13
2022-11-13T13:18:39.149Z,65.76
2022-11-13T13:21:29.228Z,65.68
2022-11-13T13:24:34.199Z,66.00
2022-11-13T13:27:36.325Z,66.09
2022-11-13T13:30:26.670Z,66.26
2022-11-13T13:33:27.277Z,66.43
2022-11-13T13:36:28.766Z,66.71
2022-11-13T13:39:31.106Z,67.22
2022-11-13T13:42:38.285Z,67.08
2022-11-13T13:45:36.656Z,67.75
2022-11-13T13:48:28.570Z,67.67
2022-11-13T13:51:28.969Z,68.07
2022-11-13T13:54:21.184Z,68.80
2022-11-13T13:57:14.777Z,68.54
2022-11-13T14:00:03.581Z,68.85
2022-11-13T14:02:52.250Z,68.75
2022-11-13T14:05:39.225Z,68.74
2022-11-13T14:08:30.719Z,69.08
2022-11-13T14:11:20.549Z,68.70
2022-11-13T14:14:17.048Z,68.44
2022-11-13T14:17:04.623Z,68.67
2022-11-13T14:19:52.205Z,69.11
2022-11-13T14:22:45.044Z,69.34
2022-11-13T14:25:34.631Z,69.68
2022-11-13T14:28:23.804Z,70.04
2022-11-13T14:31:14.274Z,70.42
2022-11-13T14:34:11.305Z,70.53
2022-11-13T14:37:19.106Z,71.39
2022-11-13T14:40:15.477Z,71.82
2022-11-13T14:43:08.972Z,71.85
2022-11-13T14:46:00.624Z,71.96
2022-11-13T14:48:55.366Z,72.20
2022-11-13T14:51:55.388Z,72.62
2022-11-13T14:55:12.913Z,72.55
2022-11-13T14:57:53.079Z,72.65
2022-11-13T15:00:41.374Z,72.66
2022-11-13T15:03:56.650Z,72.62
2022-11-13T15:06:44.614Z,73.17
2022-11-13T15:09:35.698Z,73.04
2022-11-13T17:41:47.865Z,77.59
2022-11-13T17:44:37.477Z,77.83
2022-11-13T17:47:24.616Z,77.88
2022-11-13T17:50:11.993Z,77.95
2022-11-13T17:52:59.225Z,77.79
2022-11-13T17:55:54.485Z,77.23
2022-11-13T17:58:42.967Z,77.21
2022-11-13T18:01:33.891Z,77.41
2022-11-13T18:04:21.463Z,77.61
2022-11-13T18:07:08.550Z,77.48
2022-11-13T18:09:55.731Z,77.58
2022-11-13T18:12:42.602Z,77.70
2022-11-13T18:15:29.484Z,77.44
2022-11-13T18:18:18.172Z,77.28
2022-11-13T18:21:22.381Z,77.12
2022-11-13T18:24:15.094Z,77.57
2022-11-13T18:27:02.382Z,77.21
2022-11-13T18:29:49.158Z,77.51
2022-11-13T18:32:36.110Z,77.58
2022-11-13T18:35:24.782Z,77.10
2022-11-13T18:38:11.566Z,77.38
2022-11-13T18:41:03.318Z,77.31
2022-11-13T18:43:52.078Z,77.69
2022-11-13T18:46:40.221Z,77.34
2022-11-13T18:49:26.892Z,77.19
2022-11-13T18:52:15.836Z,77.50
2022-11-13T18:55:03.755Z,77.64
2022-11-13T18:57:50.532Z,77.92
2022-11-13T19:00:37.733Z,77.93
2022-11-13T19:03:25.518Z,77.61
2022-11-13T19:06:15.414Z,77.94
2022-11-13T19:09:06.009Z,77.90
2022-11-13T19:11:55.547Z,77.64
2022-11-13T19:14:42.446Z,77.82
2022-11-13T19:17:29.363Z,77.75
2022-11-13T19:20:18.733Z,77.43
2022-11-13T19:23:09.160Z,77.30
2022-11-13T19:25:57.878Z,77.16
2022-11-13T19:28:47.927Z,77.28
2022-11-13T19:31:35.493Z,77.69
2022-11-13T19:34:22.298Z,77.07
2022-11-13T19:37:11.204Z,77.18
2022-11-13T19:40:00.686Z,76.99
2022-11-13T19:42:49.053Z,76.91
2022-11-13T19:45:37.173Z,77.06
2022-11-13T19:48:32.577Z,77.23
2022-11-13T19:51:24.208Z,77.00
2022-11-13T19:54:20.901Z,77.34
2022-11-13T19:57:08.067Z,77.23
2022-11-13T19:59:56.518Z,77.14
2022-11-13T20:02:43.804Z,76.86
2022-11-13T20:05:30.752Z,77.05
2022-11-13T20:08:18.905Z,76.90
2022-11-13T20:11:07.515Z,76.83
2022-11-13T20:13:54.815Z,77.24
2022-11-13T20:16:43.251Z,76.64
2022-11-13T20:19:30.703Z,76.66
2022-11-13T20:22:18.286Z,76.81
2022-11-13T20:25:05.447Z,77.10
2022-11-13T20:27:52.640Z,77.03
2022-11-13T20:30:43.463Z,76.83
2022-11-13T20:33:33.526Z,76.75
2022-11-13T20:36:21.378Z,76.97
2022-11-13T20:39:09.563Z,77.14
2022-11-13T20:41:56.498Z,76.83
2022-11-13T20:44:43.294Z,77.66
2022-11-13T20:47:30.879Z,77.76
2022-11-13T20:50:20.830Z,77.46
2022-11-13T20:53:08.236Z,77.73
2022-11-13T20:55:56.223Z,77.28
2022-11-13T20:58:44.353Z,77.64
2022-11-13T21:01:37.223Z,77.48
2022-11-13T21:04:24.232Z,77.54
2022-11-13T21:07:13.039Z,77.59
2022-11-13T21:10:00.518Z,77.65
2022-11-13T21:12:47.543Z,77.23
2022-11-13T21:15:34.298Z,77.49
2022-11-13T21:18:22.206Z,77.96
2022-11-13T21:21:10.443Z,77.64
2022-11-13T21:23:59.750Z,77.78
2022-11-13T21:26:49.650Z,77.50
2022-11-13T21:29:37.184Z,78.10
2022-11-13T21:32:24.112Z,77.81
2022-11-13T21:35:11.219Z,77.97
2022-11-13T21:37:58.024Z,78.43
2022-11-13T21:41:06.488Z,78.10
2022-11-13T21:43:58.427Z,78.08
2022-11-13T21:46:45.912Z,78.15
2022-11-13T21:49:32.720Z,78.00
2022-11-13T21:52:19.613Z,78.25
2022-11-13T21:55:07.298Z,78.11
2022-11-13T21:57:55.660Z,78.23
2022-11-13T22:00:42.489Z,78.02
2022-11-13T22:03:30.041Z,77.90
2022-11-13T22:06:20.269Z,78.09
2022-11-13T22:09:08.830Z,77.72
2022-11-13T22:11:55.855Z,77.67
2022-11-13T22:14:44.310Z,77.78
2022-11-13T22:17:31.216Z,77.83
2022-11-13T22:20:18.097Z,77.84
2022-11-13T22:23:06.570Z,77.76
2022-11-13T22:26:02.231Z,77.65
2022-11-13T22:28:50.344Z,78.15
2022-11-13T22:31:39.067Z,77.99
2022-11-13T22:34:27.113Z,77.87
2022-11-13T22:37:13.978Z,77.91
2022-11-13T22:40:00.730Z,77.83
2022-11-13T22:42:47.913Z,78.04
2022-11-13T22:45:34.978Z,77.76
2022-11-13T22:48:23.126Z,78.06
2022-11-13T22:51:13.472Z,77.85
2022-11-13T22:54:02.365Z,77.57
2022-11-13T22:56:49.521Z,77.29
2022-11-13T22:59:36.415Z,77.80
2022-11-13T23:02:24.833Z,77.64
2022-11-13T23:05:13.016Z,77.34
2022-11-13T23:08:00.068Z,77.20
2022-11-13T23:10:53.722Z,77.25
2022-11-13T23:13:42.571Z,77.25
2022-11-13T23:16:30.460Z,77.06
2022-11-13T23:19:17.562Z,77.16
2022-11-13T23:22:06.048Z,77.56
2022-11-13T23:24:53.856Z,77.34
2022-11-13T23:27:40.557Z,77.63
2022-11-13T23:30:27.671Z,77.61
2022-11-13T23:33:14.623Z,77.53
2022-11-13T23:36:02.073Z,77.62
2022-11-13T23:38:50.363Z,77.47
2022-11-13T23:41:37.319Z,77.67
2022-11-13T23:44:25.742Z,77.54
2022-11-13T23:47:12.731Z,77.27
2022-11-13T23:50:00.729Z,77.62
2022-11-13T23:53:22.288Z,77.01
2022-11-13T23:56:12.523Z,77.84
2022-11-13T23:59:07.858Z,77.92
